Terminal Aerodrome Forecast
Issued by NWS Newport/Morehead City, NC

Home | Current Version | Previous Version | Graphics & Text | Print | Product List | Glossary On
Versions: 1 2 3 4 5 6 7 8 9 10 11 12 13 14 15 16 17 18 19 20 21 22 23
000
FTUS42 KMHX 291120
TAFEWN
TAF
KEWN 291120Z 2912/3012 11008KT 6SM SHRA SCT015 BKN035
      TEMPO 2912/2914 4SM SHRA BKN015
     FM291800 13008KT 5SM SHRA SCT015 OVC035
     FM300600 11005KT 5SM SHRA OVC020=

USA.gov is the U.S. government's official web portal to all federal, state and local government web resources and services.